sensor_id;sensor_type;location;lat;lon;timestamp;P1;durP1;ratioP1;P2;durP2;ratioP2
58260;SDS011;44058;52.898;6.502;2022-07-23T00:00:09;4.60;;;3.25;;
58260;SDS011;44058;52.898;6.502;2022-07-23T00:02:36;4.88;;;3.35;;
58260;SDS011;44058;52.898;6.502;2022-07-23T00:05:02;5.47;;;3.55;;
58260;SDS011;44058;52.898;6.502;2022-07-23T00:07:28;4.28;;;3.28;;
58260;SDS011;44058;52.898;6.502;2022-07-23T00:09:53;3.80;;;3.38;;
58260;SDS011;44058;52.898;6.502;2022-07-23T00:12:19;6.05;;;4.30;;
58260;SDS011;44058;52.898;6.502;2022-07-23T00:14:46;5.60;;;3.90;;
58260;SDS011;44058;52.898;6.502;2022-07-23T00:17:12;4.38;;;3.55;;
58260;SDS011;44058;52.898;6.502;2022-07-23T00:19:37;4.93;;;4.43;;
58260;SDS011;44058;52.898;6.502;2022-07-23T00:22:03;4.78;;;4.25;;
58260;SDS011;44058;52.898;6.502;2022-07-23T00:24:29;4.70;;;4.07;;
58260;SDS011;44058;52.898;6.502;2022-07-23T00:26:54;7.50;;;3.67;;
58260;SDS011;44058;52.898;6.502;2022-07-23T00:29:20;4.78;;;3.88;;
58260;SDS011;44058;52.898;6.502;2022-07-23T00:31:46;6.72;;;4.45;;
58260;SDS011;44058;52.898;6.502;2022-07-23T00:34:11;5.53;;;3.90;;
58260;SDS011;44058;52.898;6.502;2022-07-23T00:36:37;4.25;;;3.17;;
58260;SDS011;44058;52.898;6.502;2022-07-23T00:39:03;3.90;;;3.58;;
58260;SDS011;44058;52.898;6.502;2022-07-23T00:41:29;3.95;;;3.53;;
58260;SDS011;44058;52.898;6.502;2022-07-23T00:43:55;3.90;;;3.50;;
58260;SDS011;44058;52.898;6.502;2022-07-23T00:46:21;5.85;;;3.88;;
58260;SDS011;44058;52.898;6.502;2022-07-23T00:48:47;3.20;;;2.90;;
58260;SDS011;44058;52.898;6.502;2022-07-23T00:51:14;3.13;;;2.83;;
58260;SDS011;44058;52.898;6.502;2022-07-23T00:53:41;8.82;;;4.05;;
58260;SDS011;44058;52.898;6.502;2022-07-23T00:56:07;4.30;;;3.55;;
58260;SDS011;44058;52.898;6.502;2022-07-23T00:58:34;5.03;;;4.00;;
58260;SDS011;44058;52.898;6.502;2022-07-23T01:01:01;6.37;;;4.40;;
58260;SDS011;44058;52.898;6.502;2022-07-23T01:03:26;4.07;;;3.55;;
58260;SDS011;44058;52.898;6.502;2022-07-23T01:05:52;3.70;;;3.40;;
58260;SDS011;44058;52.898;6.502;2022-07-23T01:08:18;3.40;;;3.10;;
58260;SDS011;44058;52.898;6.502;2022-07-23T01:10:46;3.83;;;2.72;;
58260;SDS011;44058;52.898;6.502;2022-07-23T01:13:13;3.10;;;2.90;;
58260;SDS011;44058;52.898;6.502;2022-07-23T01:15:39;3.28;;;2.40;;
58260;SDS011;44058;52.898;6.502;2022-07-23T01:18:06;3.92;;;2.75;;
58260;SDS011;44058;52.898;6.502;2022-07-23T01:20:32;3.67;;;2.53;;
58260;SDS011;44058;52.898;6.502;2022-07-23T01:22:58;2.92;;;2.72;;
58260;SDS011;44058;52.898;6.502;2022-07-23T01:25:24;2.25;;;2.08;;
58260;SDS011;44058;52.898;6.502;2022-07-23T01:27:51;1.80;;;1.70;;
58260;SDS011;44058;52.898;6.502;2022-07-23T01:30:18;2.75;;;2.55;;
58260;SDS011;44058;52.898;6.502;2022-07-23T01:32:44;3.55;;;2.47;;
58260;SDS011;44058;52.898;6.502;2022-07-23T01:35:10;3.45;;;2.28;;
58260;SDS011;44058;52.898;6.502;2022-07-23T01:37:36;3.53;;;3.22;;
58260;SDS011;44058;52.898;6.502;2022-07-23T01:40:02;4.10;;;3.70;;
58260;SDS011;44058;52.898;6.502;2022-07-23T01:42:29;3.92;;;3.55;;
58260;SDS011;44058;52.898;6.502;2022-07-23T01:44:55;3.85;;;3.55;;
58260;SDS011;44058;52.898;6.502;2022-07-23T01:47:20;3.40;;;3.10;;
58260;SDS011;44058;52.898;6.502;2022-07-23T01:49:46;2.92;;;2.50;;
58260;SDS011;44058;52.898;6.502;2022-07-23T01:52:12;4.32;;;2.92;;
58260;SDS011;44058;52.898;6.502;2022-07-23T01:54:38;2.92;;;2.72;;
58260;SDS011;44058;52.898;6.502;2022-07-23T01:57:04;3.97;;;3.28;;
58260;SDS011;44058;52.898;6.502;2022-07-23T01:59:31;2.53;;;2.33;;
58260;SDS011;44058;52.898;6.502;2022-07-23T02:01:57;4.35;;;3.40;;
58260;SDS011;44058;52.898;6.502;2022-07-23T02:04:23;2.80;;;2.60;;
58260;SDS011;44058;52.898;6.502;2022-07-23T02:06:50;3.88;;;3.47;;
58260;SDS011;44058;52.898;6.502;2022-07-23T02:09:16;3.75;;;3.45;;
58260;SDS011;44058;52.898;6.502;2022-07-23T02:11:42;3.90;;;3.40;;
58260;SDS011;44058;52.898;6.502;2022-07-23T02:14:08;2.13;;;2.03;;
58260;SDS011;44058;52.898;6.502;2022-07-23T02:16:34;4.22;;;2.92;;
58260;SDS011;44058;52.898;6.502;2022-07-23T02:19:00;2.95;;;2.60;;
58260;SDS011;44058;52.898;6.502;2022-07-23T02:21:26;4.38;;;3.80;;
58260;SDS011;44058;52.898;6.502;2022-07-23T02:23:55;3.97;;;3.60;;
58260;SDS011;44058;52.898;6.502;2022-07-23T02:26:20;4.57;;;3.83;;
58260;SDS011;44058;52.898;6.502;2022-07-23T02:28:46;4.72;;;3.50;;
58260;SDS011;44058;52.898;6.502;2022-07-23T02:31:12;4.15;;;3.75;;
58260;SDS011;44058;52.898;6.502;2022-07-23T02:33:37;4.10;;;3.38;;
58260;SDS011;44058;52.898;6.502;2022-07-23T02:36:03;4.32;;;3.97;;
58260;SDS011;44058;52.898;6.502;2022-07-23T02:38:30;4.93;;;4.30;;
58260;SDS011;44058;52.898;6.502;2022-07-23T02:40:55;5.53;;;5.00;;
58260;SDS011;44058;52.898;6.502;2022-07-23T02:43:21;4.70;;;4.20;;
58260;SDS011;44058;52.898;6.502;2022-07-23T02:45:47;4.68;;;4.20;;
58260;SDS011;44058;52.898;6.502;2022-07-23T02:48:12;5.35;;;3.97;;
58260;SDS011;44058;52.898;6.502;2022-07-23T02:50:39;4.78;;;4.38;;
58260;SDS011;44058;52.898;6.502;2022-07-23T02:53:04;4.82;;;4.05;;
58260;SDS011;44058;52.898;6.502;2022-07-23T02:55:30;4.63;;;3.70;;
58260;SDS011;44058;52.898;6.502;2022-07-23T02:57:56;5.93;;;4.25;;
58260;SDS011;44058;52.898;6.502;2022-07-23T03:00:22;4.63;;;3.85;;
58260;SDS011;44058;52.898;6.502;2022-07-23T03:02:48;5.43;;;3.60;;
58260;SDS011;44058;52.898;6.502;2022-07-23T03:05:13;4.63;;;3.53;;
58260;SDS011;44058;52.898;6.502;2022-07-23T03:07:39;3.50;;;3.20;;
58260;SDS011;44058;52.898;6.502;2022-07-23T03:10:05;4.50;;;3.10;;
58260;SDS011;44058;52.898;6.502;2022-07-23T03:12:31;4.63;;;3.55;;
58260;SDS011;44058;52.898;6.502;2022-07-23T03:14:56;3.65;;;3.35;;
58260;SDS011;44058;52.898;6.502;2022-07-23T03:17:23;4.28;;;3.58;;
58260;SDS011;44058;52.898;6.502;2022-07-23T03:19:49;3.15;;;2.83;;
58260;SDS011;44058;52.898;6.502;2022-07-23T03:22:14;2.40;;;2.20;;
58260;SDS011;44058;52.898;6.502;2022-07-23T03:24:40;3.55;;;2.55;;
58260;SDS011;44058;52.898;6.502;2022-07-23T03:27:21;2.38;;;2.17;;
58260;SDS011;44058;52.898;6.502;2022-07-23T03:29:48;2.30;;;2.10;;
58260;SDS011;44058;52.898;6.502;2022-07-23T03:32:18;3.15;;;2.85;;
58260;SDS011;44058;52.898;6.502;2022-07-23T03:34:46;2.60;;;2.40;;
58260;SDS011;44058;52.898;6.502;2022-07-23T03:37:12;3.72;;;2.90;;
58260;SDS011;44058;52.898;6.502;2022-07-23T03:39:38;3.00;;;2.80;;
58260;SDS011;44058;52.898;6.502;2022-07-23T03:42:04;3.63;;;2.20;;
58260;SDS011;44058;52.898;6.502;2022-07-23T03:44:29;2.30;;;1.70;;
58260;SDS011;44058;52.898;6.502;2022-07-23T03:46:55;1.13;;;1.10;;
58260;SDS011;44058;52.898;6.502;2022-07-23T03:49:21;1.52;;;1.23;;
58260;SDS011;44058;52.898;6.502;2022-07-23T03:51:47;2.47;;;2.28;;
58260;SDS011;44058;52.898;6.502;2022-07-23T03:54:13;1.70;;;1.60;;
58260;SDS011;44058;52.898;6.502;2022-07-23T03:56:39;1.40;;;1.30;;
58260;SDS011;44058;52.898;6.502;2022-07-23T03:59:05;1.98;;;1.20;;
58260;SDS011;44058;52.898;6.502;2022-07-23T04:01:31;1.58;;;1.48;;
58260;SDS011;44058;52.898;6.502;2022-07-23T04:03:56;1.63;;;1.38;;
58260;SDS011;44058;52.898;6.502;2022-07-23T04:06:22;5.38;;;3.42;;
58260;SDS011;44058;52.898;6.502;2022-07-23T04:08:48;4.10;;;3.33;;
58260;SDS011;44058;52.898;6.502;2022-07-23T04:11:13;3.72;;;3.42;;
58260;SDS011;44058;52.898;6.502;2022-07-23T04:13:39;4.10;;;3.80;;
58260;SDS011;44058;52.898;6.502;2022-07-23T04:16:05;4.35;;;3.95;;
58260;SDS011;44058;52.898;6.502;2022-07-23T04:18:32;3.63;;;3.20;;
58260;SDS011;44058;52.898;6.502;2022-07-23T04:20:57;4.18;;;3.50;;
58260;SDS011;44058;52.898;6.502;2022-07-23T04:23:23;3.85;;;3.53;;
58260;SDS011;44058;52.898;6.502;2022-07-23T04:25:49;3.72;;;3.40;;
58260;SDS011;44058;52.898;6.502;2022-07-23T04:28:15;3.97;;;3.13;;
58260;SDS011;44058;52.898;6.502;2022-07-23T04:30:41;3.42;;;2.85;;
58260;SDS011;44058;52.898;6.502;2022-07-23T04:33:07;3.08;;;2.78;;
58260;SDS011;44058;52.898;6.502;2022-07-23T04:35:33;3.67;;;2.88;;
58260;SDS011;44058;52.898;6.502;2022-07-23T04:37:59;3.05;;;2.80;;
58260;SDS011;44058;52.898;6.502;2022-07-23T04:40:25;3.15;;;2.85;;
58260;SDS011;44058;52.898;6.502;2022-07-23T04:42:52;4.85;;;3.00;;
58260;SDS011;44058;52.898;6.502;2022-07-23T04:45:18;3.25;;;2.92;;
58260;SDS011;44058;52.898;6.502;2022-07-23T04:47:44;4.80;;;3.33;;
58260;SDS011;44058;52.898;6.502;2022-07-23T04:50:09;5.03;;;3.10;;
58260;SDS011;44058;52.898;6.502;2022-07-23T04:52:35;3.97;;;3.17;;
58260;SDS011;44058;52.898;6.502;2022-07-23T04:55:01;3.15;;;2.85;;
58260;SDS011;44058;52.898;6.502;2022-07-23T04:57:26;3.85;;;3.47;;
58260;SDS011;44058;52.898;6.502;2022-07-23T04:59:52;5.05;;;3.35;;
58260;SDS011;44058;52.898;6.502;2022-07-23T05:02:18;3.92;;;3.38;;
58260;SDS011;44058;52.898;6.502;2022-07-23T05:04:44;3.92;;;3.45;;
58260;SDS011;44058;52.898;6.502;2022-07-23T05:07:09;4.57;;;3.83;;
58260;SDS011;44058;52.898;6.502;2022-07-23T05:09:35;5.80;;;3.80;;
58260;SDS011;44058;52.898;6.502;2022-07-23T05:12:01;4.45;;;4.05;;
58260;SDS011;44058;52.898;6.502;2022-07-23T05:14:27;5.43;;;4.10;;
58260;SDS011;44058;52.898;6.502;2022-07-23T05:16:53;5.32;;;4.53;;
58260;SDS011;44058;52.898;6.502;2022-07-23T05:19:19;5.55;;;4.45;;
58260;SDS011;44058;52.898;6.502;2022-07-23T05:21:45;4.72;;;4.18;;
58260;SDS011;44058;52.898;6.502;2022-07-23T05:24:11;7.43;;;3.80;;
58260;SDS011;44058;52.898;6.502;2022-07-23T05:26:36;7.05;;;4.45;;
58260;SDS011;44058;52.898;6.502;2022-07-23T05:29:02;5.13;;;4.53;;
58260;SDS011;44058;52.898;6.502;2022-07-23T05:31:28;7.00;;;4.70;;
58260;SDS011;44058;52.898;6.502;2022-07-23T05:33:53;6.95;;;4.40;;
58260;SDS011;44058;52.898;6.502;2022-07-23T05:36:20;6.35;;;4.63;;
58260;SDS011;44058;52.898;6.502;2022-07-23T05:38:45;5.22;;;4.57;;
58260;SDS011;44058;52.898;6.502;2022-07-23T05:41:11;5.65;;;4.28;;
58260;SDS011;44058;52.898;6.502;2022-07-23T05:43:37;5.60;;;4.57;;
58260;SDS011;44058;52.898;6.502;2022-07-23T05:46:02;6.93;;;4.70;;
58260;SDS011;44058;52.898;6.502;2022-07-23T05:48:28;6.03;;;4.45;;
58260;SDS011;44058;52.898;6.502;2022-07-23T05:50:54;4.68;;;4.28;;
58260;SDS011;44058;52.898;6.502;2022-07-23T05:53:20;4.55;;;3.90;;
58260;SDS011;44058;52.898;6.502;2022-07-23T05:55:45;4.40;;;3.50;;
58260;SDS011;44058;52.898;6.502;2022-07-23T05:58:11;6.25;;;3.50;;
58260;SDS011;44058;52.898;6.502;2022-07-23T06:00:37;5.78;;;3.50;;
58260;SDS011;44058;52.898;6.502;2022-07-23T06:03:02;6.10;;;3.28;;
58260;SDS011;44058;52.898;6.502;2022-07-23T06:05:28;5.72;;;3.20;;
58260;SDS011;44058;52.898;6.502;2022-07-23T06:07:54;4.22;;;2.72;;
58260;SDS011;44058;52.898;6.502;2022-07-23T06:10:19;4.88;;;2.70;;
58260;SDS011;44058;52.898;6.502;2022-07-23T06:12:45;3.67;;;2.40;;
58260;SDS011;44058;52.898;6.502;2022-07-23T06:15:11;4.10;;;2.67;;
58260;SDS011;44058;52.898;6.502;2022-07-23T06:17:37;5.78;;;2.50;;
58260;SDS011;44058;52.898;6.502;2022-07-23T06:20:07;5.80;;;2.40;;
58260;SDS011;44058;52.898;6.502;2022-07-23T06:22:35;3.22;;;2.25;;
58260;SDS011;44058;52.898;6.502;2022-07-23T06:25:01;4.72;;;2.42;;
58260;SDS011;44058;52.898;6.502;2022-07-23T06:27:27;4.70;;;2.30;;
58260;SDS011;44058;52.898;6.502;2022-07-23T06:29:53;5.30;;;2.13;;
58260;SDS011;44058;52.898;6.502;2022-07-23T06:32:19;4.15;;;2.25;;
58260;SDS011;44058;52.898;6.502;2022-07-23T06:34:45;4.10;;;2.17;;
58260;SDS011;44058;52.898;6.502;2022-07-23T06:37:11;3.17;;;1.73;;
58260;SDS011;44058;52.898;6.502;2022-07-23T06:39:37;6.40;;;2.13;;
58260;SDS011;44058;52.898;6.502;2022-07-23T06:42:02;5.50;;;1.92;;
58260;SDS011;44058;52.898;6.502;2022-07-23T06:44:28;4.32;;;1.60;;
58260;SDS011;44058;52.898;6.502;2022-07-23T06:46:54;3.78;;;1.50;;
58260;SDS011;44058;52.898;6.502;2022-07-23T06:49:20;5.28;;;1.50;;
58260;SDS011;44058;52.898;6.502;2022-07-23T06:51:45;3.25;;;1.35;;
58260;SDS011;44058;52.898;6.502;2022-07-23T06:54:11;2.53;;;1.30;;
58260;SDS011;44058;52.898;6.502;2022-07-23T06:56:37;3.78;;;1.50;;
58260;SDS011;44058;52.898;6.502;2022-07-23T06:59:03;2.13;;;1.42;;
58260;SDS011;44058;52.898;6.502;2022-07-23T07:01:28;2.58;;;1.20;;
58260;SDS011;44058;52.898;6.502;2022-07-23T07:03:54;2.42;;;1.42;;
58260;SDS011;44058;52.898;6.502;2022-07-23T07:06:20;1.92;;;1.27;;
58260;SDS011;44058;52.898;6.502;2022-07-23T07:08:46;4.57;;;1.20;;
58260;SDS011;44058;52.898;6.502;2022-07-23T07:11:11;3.90;;;1.35;;
58260;SDS011;44058;52.898;6.502;2022-07-23T07:13:37;2.42;;;1.40;;
58260;SDS011;44058;52.898;6.502;2022-07-23T07:16:04;3.13;;;1.10;;
58260;SDS011;44058;52.898;6.502;2022-07-23T07:18:30;2.63;;;1.00;;
58260;SDS011;44058;52.898;6.502;2022-07-23T07:20:56;2.13;;;0.90;;
58260;SDS011;44058;52.898;6.502;2022-07-23T07:23:22;2.67;;;1.02;;
58260;SDS011;44058;52.898;6.502;2022-07-23T07:25:48;2.20;;;1.02;;
58260;SDS011;44058;52.898;6.502;2022-07-23T07:28:14;1.00;;;0.90;;
58260;SDS011;44058;52.898;6.502;2022-07-23T07:30:40;1.52;;;0.90;;
58260;SDS011;44058;52.898;6.502;2022-07-23T07:33:06;1.90;;;0.82;;
58260;SDS011;44058;52.898;6.502;2022-07-23T07:35:32;3.22;;;1.13;;
58260;SDS011;44058;52.898;6.502;2022-07-23T07:37:58;2.13;;;0.77;;
58260;SDS011;44058;52.898;6.502;2022-07-23T07:40:25;1.63;;;0.93;;
58260;SDS011;44058;52.898;6.502;2022-07-23T07:42:51;2.28;;;0.60;;
58260;SDS011;44058;52.898;6.502;2022-07-23T07:45:22;2.55;;;0.77;;
58260;SDS011;44058;52.898;6.502;2022-07-23T07:47:49;2.85;;;0.90;;
58260;SDS011;44058;52.898;6.502;2022-07-23T07:50:16;1.27;;;0.80;;
58260;SDS011;44058;52.898;6.502;2022-07-23T07:52:42;0.73;;;0.68;;
58260;SDS011;44058;52.898;6.502;2022-07-23T07:55:08;1.40;;;0.63;;
58260;SDS011;44058;52.898;6.502;2022-07-23T07:57:35;3.13;;;0.70;;
58260;SDS011;44058;52.898;6.502;2022-07-23T08:00:01;1.38;;;0.60;;
58260;SDS011;44058;52.898;6.502;2022-07-23T08:02:28;2.25;;;0.70;;
58260;SDS011;44058;52.898;6.502;2022-07-23T08:04:53;2.08;;;0.70;;
58260;SDS011;44058;52.898;6.502;2022-07-23T08:07:21;0.73;;;0.60;;
58260;SDS011;44058;52.898;6.502;2022-07-23T08:09:47;1.33;;;0.60;;
58260;SDS011;44058;52.898;6.502;2022-07-23T08:12:12;1.40;;;0.63;;
58260;SDS011;44058;52.898;6.502;2022-07-23T08:14:38;1.67;;;0.50;;
58260;SDS011;44058;52.898;6.502;2022-07-23T08:17:04;1.95;;;0.70;;
58260;SDS011;44058;52.898;6.502;2022-07-23T08:19:29;2.10;;;0.50;;
58260;SDS011;44058;52.898;6.502;2022-07-23T08:21:56;2.33;;;0.60;;
58260;SDS011;44058;52.898;6.502;2022-07-23T08:24:21;0.57;;;0.57;;
58260;SDS011;44058;52.898;6.502;2022-07-23T08:26:47;1.13;;;0.80;;
58260;SDS011;44058;52.898;6.502;2022-07-23T08:29:13;2.92;;;0.70;;
58260;SDS011;44058;52.898;6.502;2022-07-23T08:31:38;1.38;;;0.60;;
58260;SDS011;44058;52.898;6.502;2022-07-23T08:34:05;1.15;;;0.70;;
58260;SDS011;44058;52.898;6.502;2022-07-23T08:36:31;0.70;;;0.60;;
58260;SDS011;44058;52.898;6.502;2022-07-23T08:38:58;1.80;;;0.60;;
58260;SDS011;44058;52.898;6.502;2022-07-23T08:41:24;3.00;;;0.80;;
58260;SDS011;44058;52.898;6.502;2022-07-23T08:43:50;0.88;;;0.50;;
58260;SDS011;44058;52.898;6.502;2022-07-23T08:46:18;1.65;;;0.40;;
58260;SDS011;44058;52.898;6.502;2022-07-23T08:48:47;0.82;;;0.50;;
58260;SDS011;44058;52.898;6.502;2022-07-23T08:51:14;1.45;;;0.75;;
58260;SDS011;44058;52.898;6.502;2022-07-23T08:53:39;0.45;;;0.40;;
58260;SDS011;44058;52.898;6.502;2022-07-23T08:56:06;1.50;;;0.50;;
58260;SDS011;44058;52.898;6.502;2022-07-23T08:58:32;1.67;;;0.60;;
58260;SDS011;44058;52.898;6.502;2022-07-23T09:00:59;2.08;;;0.68;;
58260;SDS011;44058;52.898;6.502;2022-07-23T09:03:27;2.15;;;0.52;;
58260;SDS011;44058;52.898;6.502;2022-07-23T09:05:55;2.97;;;0.68;;
58260;SDS011;44058;52.898;6.502;2022-07-23T09:08:23;1.60;;;0.60;;
58260;SDS011;44058;52.898;6.502;2022-07-23T09:11:21;0.80;;;0.45;;
58260;SDS011;44058;52.898;6.502;2022-07-23T09:13:53;0.60;;;0.45;;
58260;SDS011;44058;52.898;6.502;2022-07-23T09:16:23;1.48;;;0.52;;
58260;SDS011;44058;52.898;6.502;2022-07-23T09:18:57;1.85;;;0.70;;
58260;SDS011;44058;52.898;6.502;2022-07-23T09:21:31;0.73;;;0.50;;
58260;SDS011;44058;52.898;6.502;2022-07-23T09:24:02;3.38;;;0.88;;
58260;SDS011;44058;52.898;6.502;2022-07-23T09:26:44;2.72;;;0.73;;
58260;SDS011;44058;52.898;6.502;2022-07-23T09:29:18;2.35;;;0.75;;
58260;SDS011;44058;52.898;6.502;2022-07-23T09:31:54;1.42;;;0.63;;
58260;SDS011;44058;52.898;6.502;2022-07-23T09:34:34;1.23;;;0.60;;
58260;SDS011;44058;52.898;6.502;2022-07-23T09:37:10;1.73;;;0.60;;
58260;SDS011;44058;52.898;6.502;2022-07-23T09:39:41;2.03;;;0.93;;
58260;SDS011;44058;52.898;6.502;2022-07-23T09:42:15;0.90;;;0.88;;
58260;SDS011;44058;52.898;6.502;2022-07-23T09:44:46;0.77;;;0.70;;
58260;SDS011;44058;52.898;6.502;2022-07-23T09:47:13;1.50;;;0.85;;
58260;SDS011;44058;52.898;6.502;2022-07-23T09:49:39;1.23;;;0.82;;
58260;SDS011;44058;52.898;6.502;2022-07-23T09:52:05;1.27;;;0.80;;
58260;SDS011;44058;52.898;6.502;2022-07-23T09:54:37;1.52;;;0.70;;
58260;SDS011;44058;52.898;6.502;2022-07-23T09:57:09;3.15;;;0.60;;
58260;SDS011;44058;52.898;6.502;2022-07-23T09:59:40;1.15;;;0.80;;
58260;SDS011;44058;52.898;6.502;2022-07-23T10:02:07;1.60;;;0.70;;
58260;SDS011;44058;52.898;6.502;2022-07-23T10:04:35;2.63;;;0.70;;
58260;SDS011;44058;52.898;6.502;2022-07-23T10:07:02;1.63;;;0.65;;
58260;SDS011;44058;52.898;6.502;2022-07-23T10:09:33;0.82;;;0.70;;
58260;SDS011;44058;52.898;6.502;2022-07-23T10:12:04;0.80;;;0.60;;
58260;SDS011;44058;52.898;6.502;2022-07-23T10:14:53;1.67;;;0.77;;
58260;SDS011;44058;52.898;6.502;2022-07-23T10:17:19;1.58;;;0.70;;
58260;SDS011;44058;52.898;6.502;2022-07-23T10:19:45;1.50;;;0.65;;
58260;SDS011;44058;52.898;6.502;2022-07-23T10:22:24;0.82;;;0.68;;
58260;SDS011;44058;52.898;6.502;2022-07-23T10:27:39;1.70;;;0.90;;
58260;SDS011;44058;52.898;6.502;2022-07-23T10:30:19;2.20;;;0.90;;
58260;SDS011;44058;52.898;6.502;2022-07-23T10:38:58;1.05;;;0.70;;
58260;SDS011;44058;52.898;6.502;2022-07-23T10:41:39;0.95;;;0.75;;
58260;SDS011;44058;52.898;6.502;2022-07-23T10:49:32;1.10;;;0.88;;
58260;SDS011;44058;52.898;6.502;2022-07-23T10:54:50;1.48;;;0.90;;
58260;SDS011;44058;52.898;6.502;2022-07-23T10:57:25;0.77;;;0.77;;
58260;SDS011;44058;52.898;6.502;2022-07-23T11:02:46;4.10;;;1.10;;
58260;SDS011;44058;52.898;6.502;2022-07-23T11:05:17;1.40;;;1.20;;
58260;SDS011;44058;52.898;6.502;2022-07-23T11:10:31;2.50;;;1.00;;
58260;SDS011;44058;52.898;6.502;2022-07-23T11:13:22;1.75;;;1.00;;
58260;SDS011;44058;52.898;6.502;2022-07-23T11:18:52;1.88;;;1.13;;
58260;SDS011;44058;52.898;6.502;2022-07-23T11:26:58;2.20;;;1.27;;
58260;SDS011;44058;52.898;6.502;2022-07-23T11:32:01;1.80;;;1.20;;
58260;SDS011;44058;52.898;6.502;2022-07-23T11:34:47;1.85;;;1.35;;
58260;SDS011;44058;52.898;6.502;2022-07-23T11:39:55;1.38;;;1.27;;
58260;SDS011;44058;52.898;6.502;2022-07-23T11:42:21;2.80;;;1.30;;
58260;SDS011;44058;52.898;6.502;2022-07-23T11:44:49;1.65;;;1.30;;
58260;SDS011;44058;52.898;6.502;2022-07-23T11:47:15;1.45;;;1.35;;
58260;SDS011;44058;52.898;6.502;2022-07-23T11:50:00;2.38;;;1.40;;
58260;SDS011;44058;52.898;6.502;2022-07-23T11:52:27;2.15;;;1.40;;
58260;SDS011;44058;52.898;6.502;2022-07-23T11:55:00;1.88;;;1.10;;
58260;SDS011;44058;52.898;6.502;2022-07-23T11:57:30;1.15;;;1.05;;
58260;SDS011;44058;52.898;6.502;2022-07-23T11:59:58;1.70;;;1.35;;
58260;SDS011;44058;52.898;6.502;2022-07-23T12:02:31;1.98;;;1.30;;
58260;SDS011;44058;52.898;6.502;2022-07-23T12:04:57;1.20;;;1.10;;
58260;SDS011;44058;52.898;6.502;2022-07-23T12:10:03;1.95;;;1.20;;
58260;SDS011;44058;52.898;6.502;2022-07-23T12:12:37;1.70;;;1.60;;
58260;SDS011;44058;52.898;6.502;2022-07-23T12:15:05;3.67;;;1.60;;
58260;SDS011;44058;52.898;6.502;2022-07-23T12:17:32;2.55;;;1.40;;
58260;SDS011;44058;52.898;6.502;2022-07-23T12:20:01;3.22;;;1.50;;
58260;SDS011;44058;52.898;6.502;2022-07-23T12:22:35;3.20;;;1.50;;
58260;SDS011;44058;52.898;6.502;2022-07-23T12:25:04;2.83;;;1.60;;
58260;SDS011;44058;52.898;6.502;2022-07-23T12:27:39;2.58;;;1.58;;
58260;SDS011;44058;52.898;6.502;2022-07-23T12:30:15;1.70;;;1.40;;
58260;SDS011;44058;52.898;6.502;2022-07-23T12:32:48;1.60;;;1.50;;
58260;SDS011;44058;52.898;6.502;2022-07-23T12:35:15;5.18;;;1.63;;
58260;SDS011;44058;52.898;6.502;2022-07-23T12:37:42;2.75;;;1.40;;
58260;SDS011;44058;52.898;6.502;2022-07-23T12:40:29;1.50;;;1.40;;
58260;SDS011;44058;52.898;6.502;2022-07-23T12:42:58;2.83;;;1.55;;
58260;SDS011;44058;52.898;6.502;2022-07-23T12:47:54;1.60;;;1.50;;
58260;SDS011;44058;52.898;6.502;2022-07-23T12:50:32;4.47;;;1.50;;
58260;SDS011;44058;52.898;6.502;2022-07-23T12:55:34;2.92;;;1.38;;
58260;SDS011;44058;52.898;6.502;2022-07-23T12:58:10;3.00;;;1.75;;
58260;SDS011;44058;52.898;6.502;2022-07-23T13:03:28;2.97;;;1.67;;
58260;SDS011;44058;52.898;6.502;2022-07-23T13:05:55;1.83;;;1.60;;
58260;SDS011;44058;52.898;6.502;2022-07-23T13:08:22;2.45;;;1.55;;
58260;SDS011;44058;52.898;6.502;2022-07-23T13:10:48;3.78;;;2.08;;
58260;SDS011;44058;52.898;6.502;2022-07-23T13:13:16;1.98;;;1.73;;
58260;SDS011;44058;52.898;6.502;2022-07-23T13:18:10;2.95;;;1.65;;
58260;SDS011;44058;52.898;6.502;2022-07-23T13:20:36;1.83;;;1.65;;
58260;SDS011;44058;52.898;6.502;2022-07-23T13:23:04;3.50;;;1.90;;
58260;SDS011;44058;52.898;6.502;2022-07-23T13:25:32;2.53;;;1.70;;
58260;SDS011;44058;52.898;6.502;2022-07-23T13:27:59;1.60;;;1.40;;
58260;SDS011;44058;52.898;6.502;2022-07-23T13:30:25;1.98;;;1.63;;
58260;SDS011;44058;52.898;6.502;2022-07-23T13:32:51;2.35;;;1.40;;
58260;SDS011;44058;52.898;6.502;2022-07-23T13:35:17;1.70;;;1.60;;
58260;SDS011;44058;52.898;6.502;2022-07-23T13:37:42;1.60;;;1.50;;
58260;SDS011;44058;52.898;6.502;2022-07-23T13:40:08;2.63;;;1.50;;
58260;SDS011;44058;52.898;6.502;2022-07-23T13:42:35;1.63;;;1.50;;
58260;SDS011;44058;52.898;6.502;2022-07-23T13:45:01;2.30;;;1.50;;
58260;SDS011;44058;52.898;6.502;2022-07-23T13:47:28;1.52;;;1.40;;
58260;SDS011;44058;52.898;6.502;2022-07-23T13:49:54;2.67;;;1.40;;
58260;SDS011;44058;52.898;6.502;2022-07-23T13:52:20;1.92;;;1.30;;
58260;SDS011;44058;52.898;6.502;2022-07-23T13:54:45;2.10;;;1.30;;
58260;SDS011;44058;52.898;6.502;2022-07-23T13:57:11;1.95;;;1.30;;
58260;SDS011;44058;52.898;6.502;2022-07-23T13:59:37;1.77;;;1.52;;
58260;SDS011;44058;52.898;6.502;2022-07-23T14:02:03;2.70;;;1.45;;
58260;SDS011;44058;52.898;6.502;2022-07-23T14:04:29;2.95;;;1.65;;
58260;SDS011;44058;52.898;6.502;2022-07-23T14:06:55;1.83;;;1.52;;
58260;SDS011;44058;52.898;6.502;2022-07-23T14:09:21;2.65;;;1.38;;
58260;SDS011;44058;52.898;6.502;2022-07-23T14:11:47;1.45;;;1.15;;
58260;SDS011;44058;52.898;6.502;2022-07-23T14:14:15;1.67;;;1.52;;
58260;SDS011;44058;52.898;6.502;2022-07-23T14:16:40;1.40;;;1.08;;
58260;SDS011;44058;52.898;6.502;2022-07-23T14:19:06;2.47;;;1.58;;
58260;SDS011;44058;52.898;6.502;2022-07-23T14:21:32;1.60;;;1.30;;
58260;SDS011;44058;52.898;6.502;2022-07-23T14:23:57;9.13;;;1.40;;
58260;SDS011;44058;52.898;6.502;2022-07-23T14:26:23;1.35;;;1.25;;
58260;SDS011;44058;52.898;6.502;2022-07-23T14:28:50;1.13;;;1.02;;
58260;SDS011;44058;52.898;6.502;2022-07-23T14:31:16;1.50;;;1.30;;
58260;SDS011;44058;52.898;6.502;2022-07-23T14:33:41;2.38;;;1.50;;
58260;SDS011;44058;52.898;6.502;2022-07-23T14:36:07;1.77;;;1.15;;
58260;SDS011;44058;52.898;6.502;2022-07-23T14:38:33;1.73;;;1.25;;
58260;SDS011;44058;52.898;6.502;2022-07-23T14:40:59;1.60;;;1.30;;
58260;SDS011;44058;52.898;6.502;2022-07-23T14:43:24;2.00;;;1.23;;
58260;SDS011;44058;52.898;6.502;2022-07-23T14:45:50;2.60;;;1.15;;
58260;SDS011;44058;52.898;6.502;2022-07-23T14:48:16;2.72;;;1.40;;
58260;SDS011;44058;52.898;6.502;2022-07-23T14:50:41;1.48;;;1.10;;
58260;SDS011;44058;52.898;6.502;2022-07-23T14:53:07;1.83;;;1.35;;
58260;SDS011;44058;52.898;6.502;2022-07-23T14:55:33;1.88;;;1.67;;
58260;SDS011;44058;52.898;6.502;2022-07-23T14:57:59;1.73;;;1.20;;
58260;SDS011;44058;52.898;6.502;2022-07-23T15:00:25;2.30;;;1.20;;
58260;SDS011;44058;52.898;6.502;2022-07-23T15:02:51;1.10;;;1.10;;
58260;SDS011;44058;52.898;6.502;2022-07-23T15:05:18;2.03;;;1.30;;
58260;SDS011;44058;52.898;6.502;2022-07-23T15:07:44;1.88;;;1.38;;
58260;SDS011;44058;52.898;6.502;2022-07-23T15:10:10;2.45;;;1.30;;
58260;SDS011;44058;52.898;6.502;2022-07-23T15:12:36;1.77;;;1.30;;
58260;SDS011;44058;52.898;6.502;2022-07-23T15:15:02;1.35;;;1.15;;
58260;SDS011;44058;52.898;6.502;2022-07-23T15:17:29;3.75;;;1.33;;
58260;SDS011;44058;52.898;6.502;2022-07-23T15:19:55;1.75;;;1.13;;
58260;SDS011;44058;52.898;6.502;2022-07-23T15:22:20;2.00;;;1.30;;
58260;SDS011;44058;52.898;6.502;2022-07-23T15:24:47;1.77;;;1.20;;
58260;SDS011;44058;52.898;6.502;2022-07-23T15:27:12;1.92;;;1.23;;
58260;SDS011;44058;52.898;6.502;2022-07-23T15:29:39;1.83;;;1.30;;
58260;SDS011;44058;52.898;6.502;2022-07-23T15:32:05;2.50;;;1.13;;
58260;SDS011;44058;52.898;6.502;2022-07-23T15:34:30;1.83;;;1.45;;
58260;SDS011;44058;52.898;6.502;2022-07-23T15:36:59;1.73;;;1.15;;